createdAt,value
2023-03-12T00:03:10.562Z,11.53
2023-03-12T00:08:32.398Z,10.47
2023-03-12T00:13:57.048Z,10.27
2023-03-12T00:19:18.847Z,8.20
2023-03-12T00:24:40.566Z,12.23
2023-03-12T00:30:02.886Z,12.13
2023-03-12T00:35:25.635Z,14.10
2023-03-12T00:40:47.635Z,11.93
2023-03-12T00:46:09.366Z,14.23
2023-03-12T00:51:31.052Z,12.80
2023-03-12T00:56:52.735Z,17.03
2023-03-12T01:02:14.436Z,12.63
2023-03-12T01:07:36.336Z,15.87
2023-03-12T01:12:58.315Z,11.67
2023-03-12T01:18:20.291Z,13.53
2023-03-12T01:23:42.046Z,10.83
2023-03-12T01:29:03.784Z,11.87
2023-03-12T01:34:25.556Z,14.27
2023-03-12T01:39:47.286Z,10.63
2023-03-12T01:45:46.701Z,10.07
2023-03-12T01:51:12.313Z,13.17
2023-03-12T01:56:36.592Z,11.10
2023-03-12T02:01:59.600Z,10.97
2023-03-12T02:07:21.346Z,11.03
2023-03-12T02:12:43.305Z,16.27
2023-03-12T02:18:07.650Z,12.30
2023-03-12T02:23:52.321Z,12.63
2023-03-12T02:29:14.533Z,11.20
2023-03-12T02:34:36.326Z,12.50
2023-03-12T02:40:08.899Z,9.30
2023-03-12T02:45:31.097Z,11.03
2023-03-12T02:50:52.808Z,13.57
2023-03-12T02:56:14.571Z,12.23
2023-03-12T03:01:36.701Z,12.83
2023-03-12T03:06:58.775Z,11.87
2023-03-12T03:12:20.600Z,15.10
2023-03-12T03:17:42.316Z,12.40
2023-03-12T03:23:04.584Z,16.30
2023-03-12T03:28:28.156Z,13.23
2023-03-12T03:33:50.190Z,15.87
2023-03-12T03:39:11.968Z,10.43
2023-03-12T03:44:34.796Z,16.23
2023-03-12T03:49:56.534Z,14.97
2023-03-12T03:55:18.545Z,11.63
2023-03-12T04:00:40.266Z,9.53
2023-03-12T04:06:05.458Z,11.37
2023-03-12T04:11:27.486Z,13.17
2023-03-12T04:16:49.280Z,13.30
2023-03-12T04:22:11.408Z,9.93
2023-03-12T04:27:34.313Z,12.77
2023-03-12T04:32:56.098Z,12.23
2023-03-12T04:38:18.302Z,12.70
2023-03-12T04:43:40.239Z,9.73
2023-03-12T04:49:02.743Z,17.97
2023-03-12T04:54:24.576Z,11.37
2023-03-12T04:59:48.076Z,12.70
2023-03-12T05:05:11.607Z,9.60
2023-03-12T05:10:33.389Z,11.03
2023-03-12T05:15:55.376Z,14.00
2023-03-12T05:21:19.573Z,12.10
2023-03-12T05:26:41.407Z,11.87
2023-03-12T05:32:03.632Z,11.30
2023-03-12T05:37:25.454Z,10.07
2023-03-12T05:42:47.175Z,10.47
2023-03-12T05:48:08.908Z,9.93
2023-03-12T05:53:30.716Z,13.40
2023-03-12T05:58:52.509Z,12.07
2023-03-12T06:04:14.349Z,7.97
2023-03-12T06:09:36.179Z,11.80
2023-03-12T06:14:58.272Z,12.87
2023-03-12T06:20:20.100Z,10.43
2023-03-12T06:25:45.021Z,11.33
2023-03-12T06:31:07.908Z,11.57
2023-03-12T06:36:29.859Z,13.73
2023-03-12T06:41:51.566Z,17.60
2023-03-12T06:47:13.631Z,9.57
2023-03-12T06:52:36.061Z,9.20
2023-03-12T06:57:57.750Z,11.00
2023-03-12T07:03:19.925Z,12.03
2023-03-12T07:08:42.048Z,12.10
2023-03-12T07:14:03.806Z,11.37
2023-03-12T07:19:25.564Z,10.53
2023-03-12T07:24:47.276Z,11.43
2023-03-12T07:30:09.703Z,10.53
2023-03-12T07:35:32.852Z,4.73
2023-03-12T07:40:57.125Z,8.23
2023-03-12T07:46:18.929Z,9.00
2023-03-12T07:51:40.664Z,9.43
2023-03-12T07:57:02.504Z,8.43
2023-03-12T08:02:24.363Z,6.93
2023-03-12T08:07:46.904Z,7.60
2023-03-12T08:13:08.634Z,10.57
2023-03-12T08:18:30.435Z,7.53
2023-03-12T08:23:52.189Z,9.57
2023-03-12T08:29:14.264Z,8.53
2023-03-12T08:34:36.559Z,8.50
2023-03-12T08:39:58.932Z,10.13
2023-03-12T08:45:20.663Z,11.93
2023-03-12T08:50:42.397Z,11.23
2023-03-12T08:56:04.970Z,8.37
2023-03-12T09:01:26.725Z,9.50
2023-03-12T09:06:48.505Z,11.67
2023-03-12T09:12:10.832Z,12.07
2023-03-12T09:17:32.567Z,11.60
2023-03-12T09:22:54.262Z,11.23
2023-03-12T09:28:16.760Z,10.27
2023-03-12T09:33:39.490Z,10.97
2023-03-12T09:39:02.353Z,10.00
2023-03-12T09:44:44.436Z,11.03
2023-03-12T09:50:20.188Z,13.80
2023-03-12T09:55:45.113Z,10.67
2023-03-12T10:01:39.260Z,14.10
2023-03-12T10:07:12.603Z,13.33
2023-03-12T10:12:51.981Z,11.17
2023-03-12T10:18:24.317Z,10.13
2023-03-12T10:24:08.481Z,12.80
2023-03-12T10:29:35.679Z,13.17
2023-03-12T10:35:04.310Z,10.70
2023-03-12T10:40:29.429Z,14.32
2023-03-12T10:46:16.781Z,12.77
2023-03-12T10:52:20.095Z,8.75
2023-03-12T10:57:42.909Z,6.75
2023-03-12T11:03:20.680Z,2.53
2023-03-12T11:08:43.111Z,5.43
2023-03-12T11:14:12.984Z,2.33
2023-03-12T11:19:35.462Z,3.75
2023-03-12T11:25:07.418Z,3.05
2023-03-12T11:30:57.300Z,2.60
2023-03-12T11:36:35.992Z,4.72
2023-03-12T11:42:21.410Z,1.50
2023-03-12T11:48:05.098Z,2.67
2023-03-12T11:54:00.897Z,2.05
2023-03-12T11:59:39.012Z,2.03
2023-03-12T12:05:22.859Z,2.23
2023-03-12T12:11:11.377Z,3.70
2023-03-12T12:16:40.268Z,2.97
2023-03-12T12:22:41.760Z,5.60
2023-03-12T12:28:12.820Z,3.78
2023-03-12T12:33:40.664Z,2.08
2023-03-12T12:39:18.804Z,3.35
2023-03-12T12:44:53.558Z,3.17
2023-03-12T12:50:22.286Z,3.33
2023-03-12T12:55:55.647Z,5.65
2023-03-12T13:01:18.252Z,6.88
2023-03-12T13:06:58.144Z,2.42
2023-03-12T13:12:41.985Z,4.60
2023-03-12T13:18:24.216Z,7.07
2023-03-12T13:24:02.958Z,5.97
2023-03-12T13:29:32.850Z,5.97
2023-03-12T13:34:57.776Z,4.65
2023-03-12T13:40:31.545Z,5.32
2023-03-12T13:46:06.764Z,3.55
2023-03-12T13:51:28.880Z,4.97
2023-03-12T13:57:04.423Z,5.38
2023-03-12T14:02:34.666Z,9.85
2023-03-12T14:08:24.663Z,9.05
2023-03-12T14:14:25.443Z,7.78
2023-03-12T14:19:52.523Z,5.35
2023-03-12T14:25:21.905Z,8.10
2023-03-12T14:30:57.245Z,4.38
2023-03-12T14:36:22.691Z,5.20
2023-03-12T14:41:49.077Z,6.25
2023-03-12T14:47:17.238Z,4.43
2023-03-12T14:52:39.026Z,6.10
2023-03-12T14:58:17.018Z,6.55
2023-03-12T15:03:44.274Z,6.90
2023-03-12T15:09:07.510Z,9.25
2023-03-12T15:14:34.845Z,7.32
2023-03-12T15:19:57.324Z,4.15
2023-03-12T15:25:24.644Z,7.47
2023-03-12T15:30:46.468Z,4.10
2023-03-12T15:36:17.479Z,7.25
2023-03-12T15:41:48.683Z,6.78
2023-03-12T15:47:15.043Z,6.03
2023-03-12T15:52:36.919Z,8.23
2023-03-12T15:57:59.806Z,7.88
2023-03-12T16:03:22.078Z,8.45
2023-03-12T16:08:46.699Z,5.07
2023-03-12T16:14:25.723Z,5.30
2023-03-12T16:19:47.511Z,10.35
2023-03-12T16:25:11.979Z,7.38
2023-03-12T16:30:36.178Z,11.18
2023-03-12T16:35:57.975Z,8.20
2023-03-12T16:41:20.045Z,9.63
2023-03-12T16:46:41.832Z,10.30
2023-03-12T16:52:16.176Z,9.18
2023-03-12T16:57:41.600Z,12.07
2023-03-12T17:03:05.933Z,8.75
2023-03-12T17:08:27.818Z,11.00
2023-03-12T17:13:57.485Z,9.07
2023-03-12T17:19:19.494Z,8.48
2023-03-12T17:24:41.320Z,8.52
2023-03-12T17:30:03.314Z,16.33
2023-03-12T17:35:25.107Z,16.52
2023-03-12T17:40:46.858Z,13.90
2023-03-12T17:46:10.211Z,9.02
2023-03-12T17:51:31.936Z,9.75
2023-03-12T17:56:53.666Z,17.85
2023-03-12T18:02:15.463Z,13.52
2023-03-12T18:07:38.077Z,12.90
2023-03-12T18:12:59.884Z,11.15
2023-03-12T18:18:22.771Z,14.85
2023-03-12T18:23:46.045Z,10.55
2023-03-12T18:29:07.912Z,10.68
2023-03-12T18:34:29.921Z,10.68
2023-03-12T18:39:51.674Z,12.90
2023-03-12T18:45:13.424Z,8.45
2023-03-12T18:50:35.184Z,8.27
2023-03-12T18:55:58.394Z,12.00
2023-03-12T19:01:20.673Z,9.73
2023-03-12T19:06:50.702Z,12.25
2023-03-12T19:12:13.105Z,13.05
2023-03-12T19:17:34.981Z,10.45
2023-03-12T19:22:56.729Z,14.52
2023-03-12T19:28:18.564Z,15.88
2023-03-12T19:33:41.564Z,13.60
2023-03-12T19:39:06.741Z,11.98
2023-03-12T19:44:36.227Z,11.35
2023-03-12T19:49:57.967Z,12.27
2023-03-12T19:55:19.889Z,12.95
2023-03-12T20:00:42.697Z,10.55
2023-03-12T20:06:08.013Z,12.20
2023-03-12T20:11:29.942Z,14.57
2023-03-12T20:16:52.380Z,14.38
2023-03-12T20:22:14.572Z,15.27
2023-03-12T20:27:36.769Z,14.35
2023-03-12T20:32:58.831Z,15.80
2023-03-12T20:38:20.595Z,13.10
2023-03-12T20:43:42.947Z,14.52
2023-03-12T20:49:04.773Z,16.88
2023-03-12T20:54:27.441Z,14.95
2023-03-12T20:59:49.224Z,12.85
2023-03-12T21:05:11.468Z,14.95
2023-03-12T21:10:37.227Z,15.50
2023-03-12T21:15:59.233Z,14.85
2023-03-12T21:21:20.999Z,16.13
2023-03-12T21:26:42.814Z,28.67
2023-03-12T21:32:04.729Z,34.10
2023-03-12T21:37:26.840Z,24.50
2023-03-12T21:42:48.621Z,24.38
2023-03-12T21:48:10.360Z,17.10
2023-03-12T21:53:32.163Z,13.75
2023-03-12T21:58:58.132Z,13.25
2023-03-12T22:04:20.699Z,13.10
2023-03-12T22:09:42.406Z,15.23
2023-03-12T22:15:06.401Z,14.20
2023-03-12T22:20:28.170Z,14.90
2023-03-12T22:25:50.312Z,14.20
2023-03-12T22:31:12.112Z,17.73
2023-03-12T22:36:33.922Z,16.65
2023-03-12T22:41:55.693Z,13.63
2023-03-12T22:47:17.446Z,13.73
2023-03-12T22:52:39.575Z,11.25
2023-03-12T22:58:01.265Z,11.13
2023-03-12T23:03:22.988Z,14.77
2023-03-12T23:08:47.462Z,10.80
2023-03-12T23:14:09.586Z,14.63
2023-03-12T23:19:34.451Z,15.77
2023-03-12T23:24:56.187Z,13.93
2023-03-12T23:30:18.009Z,10.23
2023-03-12T23:35:39.776Z,11.63
2023-03-12T23:41:07.107Z,16.83
2023-03-12T23:46:29.521Z,15.10
2023-03-12T23:51:51.265Z,11.73
2023-03-12T23:57:13.045Z,10.70
